Flight Track Log - Related Links

Times and Time Zones

All times are in EDT time to prevent confusion due to time zone crossing. See the EJA922 flight status page for this flight to view local times or setup timezone preferences in your user account.

Time Position Orientation Groundspeed Altitude Reporting Facility
EDT Latitude Longitude Course Direction KTS MPH feet Rate Location/Type
Mon 11:52:26 AM 40.0764 -83.0558 54° Northeast 258 297 1,500  Level Indianapolis Center
Mon 11:52:32 AM 40.0792 -83.0508 54° Northeast 199 229 1,700 2,418 Climbing Indianapolis Center
Mon 11:53:33 AM 40.1164 -82.9911 51° Northeast 209 241 4,200 2,323 Climbing Indianapolis Center
Mon 11:53:34 AM 40.1144 -82.9922 204° Southwest 199 229 4,100 2,571 Descending Indianapolis Center
Mon 11:54:36 AM 40.1644 -82.9300 44° Northeast 250 288 6,900 2,634 Climbing Indianapolis Center
Mon 11:55:37 AM 40.2192 -82.8556 46° Northeast 280 322 9,500 2,439 Climbing Indianapolis Center
Mon 11:56:39 AM 40.2833 -82.7711 45° Northeast 308 354 11,900 2,274 Climbing Indianapolis Center
Mon 11:57:41 AM 40.3550 -82.6750 46° Northeast 358 412 14,200 2,226 Climbing Indianapolis Center
Mon 11:58:43 AM 40.4297 -82.5806 44° Northeast 369 425 16,500 1,951 Climbing Indianapolis Center
Mon 11:59:44 AM 40.5333 -82.5364 18° North 382 440 18,200 1,220 Climbing Indianapolis Center
Mon 12:00:46 PM 40.6403 -82.4881 19° North 398 458 19,000 387 Climbing Indianapolis Center
Mon 12:01:48 PM 40.7572 -82.4356 19° North 434 499 19,000  Level Indianapolis Center
Mon 12:02:49 PM 40.8747 -82.3819 19° North 441 507 19,000 98 Level Indianapolis Center
Mon 12:03:51 PM 41.0017 -82.2936 28° Northeast 443 510 19,200 1,113 Climbing Indianapolis Center
Mon 12:04:53 PM 41.0592 -82.1608 60° Northeast 415 478 21,300 1,569 Climbing Indianapolis Center
Mon 12:06:01 PM 41.1122 -82.0239 63° Northeast 413 475 22,600 1,385 Climbing Cleveland Center
Mon 12:07:03 PM 41.1675 -81.8808 63° Northeast 427 491 24,300 1,561 Climbing Cleveland Center
Mon 12:08:04 PM 41.2219 -81.7378 63° Northeast 433 498 25,800 1,610 Climbing Cleveland Center
Mon 12:09:06 PM 41.2925 -81.5558 63° Northeast 455 524 27,600 1,584 Climbing Cleveland Center
Mon 12:10:09 PM 41.3514 -81.4025 63° Northeast 465 535 29,100 1,392 Climbing Cleveland Center
Mon 12:11:11 PM 41.4061 -81.2567 63° Northeast 473 544 30,500 1,839 Climbing Cleveland Center
Mon 12:12:13 PM 41.4775 -81.0692 63° Northeast 481 554 32,900 2,226 Climbing Cleveland Center
Mon 12:13:15 PM 41.5383 -80.9103 63° Northeast 479 551 35,100 1,742 Climbing Cleveland Center
Mon 12:14:17 PM 41.5989 -80.7481 63° Northeast 482 555 36,500 919 Climbing Cleveland Center
Mon 12:15:19 PM 41.6617 -80.5786 64° Northeast 499 574 37,000 242 Climbing Cleveland Center
Mon 12:16:21 PM 41.7278 -80.3992 64° Northeast 526 605 37,000  Level Cleveland Center
Mon 12:17:23 PM 41.7961 -80.2153 63° Northeast 545 627 37,000  Level Cleveland Center
Mon 12:18:25 PM 41.8639 -80.0319 64° Northeast 545 627 37,000  Level Cleveland Center
Mon 12:19:27 PM 41.9317 -79.8414 64° Northeast 542 624 37,000  Level Cleveland Center
Mon 12:20:29 PM 41.9967 -79.6622 64° Northeast 538 619 37,000  Level Cleveland Center
Mon 12:21:31 PM 42.0744 -79.4447 64° Northeast 540 621 37,000  Level Cleveland Center
Mon 12:22:33 PM 42.1381 -79.2639 65° Northeast 537 618 37,000  Level Cleveland Center
Mon 12:23:35 PM 42.1933 -79.0758 68° East 546 628 37,000  Level Cleveland Center
Mon 12:24:37 PM 42.2194 -78.8806 80° East 552 635 37,000  Level Cleveland Center
Mon 12:25:39 PM 42.2494 -78.6406 80° East 545 627 37,000  Level Cleveland Center
Mon 12:26:42 PM 42.2747 -78.4392 80° East 546 628 37,000  Level Cleveland Center
Mon 12:27:44 PM 42.2983 -78.2392 81° East 543 625 37,000  Level Cleveland Center
Mon 12:28:46 PM 42.3219 -78.0406 81° East 542 624 37,000 -242 Level Cleveland Center
Mon 12:29:48 PM 42.3456 -77.8422 81° East 541 623 36,500 -823 Descending Cleveland Center
Mon 12:30:50 PM 42.3719 -77.6083 81° East 536 617 35,300 -1,065 Descending Cleveland Center
Mon 12:31:52 PM 42.3936 -77.4131 81° East 535 616 34,300 -968 Descending Cleveland Center
Mon 12:32:54 PM 42.4156 -77.2164 81° East 535 616 33,300 -629 Descending Cleveland Center
Mon 12:33:56 PM 42.4369 -77.0169 82° East 540 621 33,000 -171 Descending Cleveland Center
Mon 12:34:39 PM 42.4544 -76.8475 82° East 549 632 33,000  Level Boston Center
Mon 12:35:40 PM 42.4769 -76.6436 81° East 544 626 33,000  Level Boston Center
Mon 12:36:40 PM 42.4903 -76.4444 85° East 538 619 33,000  Level Boston Center
Mon 12:37:41 PM 42.4514 -76.2419 105° East 530 610 33,000 -504 Level Boston Center
Mon 12:38:39 PM 42.4100 -76.0425 106° East 541 623 32,000 -1,210 Descending Boston Center
Mon 12:39:40 PM 42.3681 -75.8461 106° East 548 631 30,600 -2,016 Descending Boston Center
Mon 12:40:41 PM 42.3261 -75.6417 105° East 555 639 27,900 -2,727 Descending Boston Center
Mon 12:41:41 PM 42.2892 -75.4658 106° East 550 633 25,100 -2,800 Descending Boston Center
Mon 12:42:41 PM 42.2503 -75.2814 106° East 537 618 22,300 -2,797 Descending Boston Center
Mon 12:43:39 PM 42.2106 -75.1086 107° East 507 583 19,600 -2,186 Descending Boston Center
Mon 12:44:39 PM 42.1706 -74.9417 108° East 481 554 18,000 -793 Descending Boston Center
Mon 12:45:40 PM 42.1072 -74.7908 119° Southeast 462 532 18,000 -694 Level Boston Center
Mon 12:46:40 PM 42.0375 -74.6206 119° Southeast 467 537 16,600 -1,835 Descending Boston Center
Mon 12:47:41 PM 41.9836 -74.4958 120° Southeast 457 526 14,300 -2,132 Descending Boston Center
Mon 12:48:41 PM 41.9217 -74.3458 119° Southeast 427 491 12,300 -1,475 Descending Boston Center
Mon 12:49:39 PM 41.8694 -74.2244 120° Southeast 422 486 11,400 -661 Descending Boston Center
Mon 12:50:39 PM 41.8028 -74.0917 124° Southeast 422 486 11,000 -298 Descending Boston Center
Mon 12:51:40 PM 41.7253 -73.9589 128° Southeast 420 483 10,800 -393 Descending Boston Center
Mon 12:52:41 PM 41.6300 -73.9203 163° South 395 455 10,200 -645 Descending Boston Center
Mon 12:53:41 PM 41.5214 -73.9344 186° South 362 417 9,500 -1,509 Descending Boston Center
Mon 12:55:28 PM 41.4000 -73.8333 148° Southeast 276 318 6,000 -1,365 Descending New York TRACON
Mon 12:56:28 PM 41.3333 -73.7833 151° Southeast 279 321 5,700 -850 Descending New York TRACON
Mon 12:57:28 PM 41.2667 -73.7333 151° Southeast 266 306 4,300 -1,200 Descending New York TRACON
Mon 12:58:28 PM 41.2000 -73.6667 143° Southeast 266 306 3,300 -650 Descending New York TRACON
Mon 12:59:28 PM 41.1500 -73.6167 143° Southeast 259 298 3,000 -95 Descending New York TRACON
Mon 01:00:34 PM 41.0833 -73.5667 151° Southeast 239 275 3,100 48 Climbing New York TRACON
Mon 01:01:34 PM 41.0333 -73.5167 143° Southeast 213 245 3,100 -50 Level New York TRACON
Mon 01:02:34 PM 40.9833 -73.5167 180° South 222 255 3,000 -500 Descending New York TRACON
Mon 01:03:34 PM 40.9667 -73.5833 252° West 196 226 2,100 -450 Descending New York TRACON
Mon 01:04:34 PM 40.9833 -73.6500 288° West 192 221 2,100 -368 Level New York TRACON
Mon 01:05:28 PM 41.0167 -73.6667 339° North 138 159 1,400 -750 Descending New York TRACON
Mon 01:06:34 PM 41.0500 -73.7000 323° Northwest 122 140 600 -727 Descending New York TRACON
Mon 01:08:00 PM 41.0667 -73.7000 301° West  Level FlightAware Approximate

Login

Don't have an account? Register now (free) for customized features, flight alerts, and more!